createdAt,value
2023-04-21T00:03:21.670Z,5.27
2023-04-21T00:08:14.126Z,5.41
2023-04-21T00:13:05.815Z,5.28
2023-04-21T00:17:59.001Z,5.31
2023-04-21T00:22:52.504Z,5.19
2023-04-21T00:27:44.191Z,5.11
2023-04-21T00:32:36.004Z,5.13
2023-04-21T00:37:27.737Z,5.30
2023-04-21T00:42:19.396Z,5.28
2023-04-21T00:47:11.390Z,5.40
2023-04-21T00:52:06.188Z,5.35
2023-04-21T00:56:58.573Z,5.24
2023-04-21T01:01:52.742Z,5.22
2023-04-21T01:06:44.943Z,5.25
2023-04-21T01:11:36.649Z,5.28
2023-04-21T01:16:29.452Z,5.37
2023-04-21T01:21:21.955Z,5.47
2023-04-21T01:26:13.772Z,5.53
2023-04-21T01:31:06.439Z,5.57
2023-04-21T01:35:58.586Z,5.66
2023-04-21T01:40:54.293Z,5.66
2023-04-21T01:45:49.953Z,5.83
2023-04-21T01:50:41.729Z,5.80
2023-04-21T01:55:33.735Z,5.74
2023-04-21T02:00:26.638Z,5.62
2023-04-21T02:05:18.597Z,5.62
2023-04-21T02:10:11.773Z,5.63
2023-04-21T02:15:04.795Z,5.62
2023-04-21T02:19:56.518Z,5.61
2023-04-21T02:24:48.718Z,5.62
2023-04-21T02:29:40.620Z,5.57
2023-04-21T02:34:32.429Z,5.60
2023-04-21T02:39:24.089Z,5.60
2023-04-21T02:44:15.962Z,5.58
2023-04-21T02:49:08.228Z,5.58
2023-04-21T02:54:00.038Z,5.56
2023-04-21T02:58:51.707Z,5.63
2023-04-21T03:08:52.026Z,5.59
2023-04-21T03:13:43.704Z,5.62
2023-04-21T03:18:36.213Z,5.66
2023-04-21T03:23:31.072Z,5.68
2023-04-21T03:28:22.777Z,5.78
2023-04-21T03:33:14.486Z,5.80
2023-04-21T03:38:06.246Z,5.68
2023-04-21T03:42:57.965Z,5.63
2023-04-21T03:47:54.641Z,5.59
2023-04-21T03:52:46.381Z,5.55
2023-04-21T03:57:41.648Z,5.75
2023-04-21T04:02:33.892Z,5.79
2023-04-21T04:07:26.079Z,5.85
2023-04-21T04:12:17.745Z,5.66
2023-04-21T04:17:09.423Z,5.74
2023-04-21T04:22:01.510Z,5.80
2023-04-21T04:26:54.773Z,5.80
2023-04-21T04:31:50.501Z,5.54
2023-04-21T04:36:44.200Z,5.58
2023-04-21T04:41:40.127Z,5.62
2023-04-21T04:46:32.435Z,5.70
2023-04-21T04:51:24.230Z,5.81
2023-04-21T04:56:15.960Z,6.04
2023-04-21T05:01:17.630Z,6.00
2023-04-21T05:06:10.041Z,5.99
2023-04-21T05:11:02.468Z,6.10
2023-04-21T05:15:58.637Z,6.08
2023-04-21T05:20:50.344Z,6.16
2023-04-21T05:25:41.999Z,6.14
2023-04-21T05:30:33.776Z,6.19
2023-04-21T05:35:26.864Z,6.38
2023-04-21T05:40:19.470Z,6.23
2023-04-21T05:45:11.653Z,6.30
2023-04-21T05:50:03.464Z,6.41
2023-04-21T06:00:00.854Z,6.35
2023-04-21T06:04:53.482Z,6.36
2023-04-21T06:09:50.046Z,6.53
2023-04-21T06:19:53.417Z,6.81
2023-04-21T06:29:57.906Z,7.70
2023-04-21T06:34:59.753Z,8.41
2023-04-21T06:39:55.629Z,8.52
2023-04-21T06:44:48.826Z,8.86
2023-04-21T06:49:42.167Z,9.19
2023-04-21T06:54:34.018Z,9.44
2023-04-21T06:59:26.922Z,9.81
2023-04-21T07:04:19.262Z,9.78
2023-04-21T07:09:11.124Z,9.93
2023-04-21T07:14:02.918Z,10.16
2023-04-21T07:18:56.799Z,10.66
2023-04-21T07:23:49.133Z,11.08
2023-04-21T07:28:42.260Z,11.29
2023-04-21T07:33:33.955Z,11.15
2023-04-21T07:38:28.618Z,11.25
2023-04-21T07:43:20.439Z,11.51
2023-04-21T07:48:12.148Z,11.56
2023-04-21T07:53:04.161Z,11.47
2023-04-21T07:57:56.612Z,11.63
2023-04-21T08:07:56.584Z,12.08
2023-04-21T08:17:56.265Z,12.01
2023-04-21T08:22:48.538Z,12.27
2023-04-21T08:27:41.493Z,12.30
2023-04-21T08:32:33.601Z,11.94
2023-04-21T08:37:26.045Z,11.44
2023-04-21T08:42:19.055Z,11.38
2023-04-21T08:47:13.130Z,11.45
2023-04-21T08:52:05.824Z,11.84
2023-04-21T09:07:33.863Z,12.61
2023-04-21T09:12:26.796Z,13.07
2023-04-21T09:17:22.406Z,13.60
2023-04-21T09:27:23.527Z,13.80
2023-04-21T09:32:20.495Z,13.11
2023-04-21T09:37:18.795Z,13.13
2023-04-21T09:47:19.031Z,13.32
2023-04-21T09:52:19.002Z,13.73
2023-04-21T09:57:23.634Z,13.96
2023-04-21T10:02:21.933Z,14.25
2023-04-21T10:07:15.456Z,14.78
2023-04-21T10:17:18.247Z,15.02
2023-04-21T10:22:11.863Z,15.17
2023-04-21T10:27:04.838Z,15.03
2023-04-21T10:31:58.818Z,14.84
2023-04-21T10:37:12.609Z,14.88
2023-04-21T10:42:14.444Z,14.98
2023-04-21T10:47:10.233Z,15.03
2023-04-21T10:57:23.835Z,15.33
2023-04-21T11:02:18.308Z,15.70
2023-04-21T11:07:17.119Z,15.53
2023-04-21T11:12:15.949Z,15.44
2023-04-21T11:17:19.886Z,15.75
2023-04-21T11:22:13.214Z,15.96
2023-04-21T11:27:09.935Z,16.10
2023-04-21T11:32:03.063Z,16.24
2023-04-21T11:36:55.699Z,16.35
2023-04-21T11:41:50.721Z,16.00
2023-04-21T11:46:46.556Z,16.04
2023-04-21T11:51:45.077Z,16.37
2023-04-21T11:56:43.442Z,16.50
2023-04-21T12:01:43.547Z,16.64
2023-04-21T12:06:37.883Z,16.53
2023-04-21T12:11:31.600Z,16.78
2023-04-21T12:16:29.356Z,16.66
2023-04-21T12:21:21.393Z,16.64
2023-04-21T12:26:13.874Z,16.66
2023-04-21T12:31:06.708Z,16.36
2023-04-21T12:35:59.733Z,16.24
2023-04-21T12:40:51.636Z,16.49
2023-04-21T12:45:43.395Z,16.63
2023-04-21T12:55:46.954Z,17.35
2023-04-21T13:00:44.848Z,17.59
2023-04-21T13:05:37.215Z,17.96
2023-04-21T13:10:28.916Z,18.03
2023-04-21T13:15:20.578Z,18.20
2023-04-21T13:20:12.370Z,17.95
2023-04-21T13:25:04.824Z,18.18
2023-04-21T13:29:57.691Z,18.61
2023-04-21T13:34:49.398Z,19.06
2023-04-21T13:39:41.146Z,19.19
2023-04-21T13:44:33.123Z,19.27
2023-04-21T13:49:25.127Z,19.20
2023-04-21T13:54:16.837Z,19.19
2023-04-21T14:04:19.211Z,18.41
2023-04-21T14:09:11.919Z,17.85
2023-04-21T14:14:09.103Z,17.45
2023-04-21T14:19:02.272Z,17.25
2023-04-21T14:23:53.960Z,17.31
2023-04-21T14:28:45.741Z,17.65
2023-04-21T14:33:37.593Z,17.85
2023-04-21T14:38:30.703Z,18.07
2023-04-21T14:43:22.932Z,17.64
2023-04-21T14:48:15.894Z,17.33
2023-04-21T14:58:15.489Z,16.63
2023-04-21T15:03:07.587Z,16.23
2023-04-21T15:08:00.137Z,16.12
2023-04-21T15:12:51.953Z,15.76
2023-04-21T15:17:43.700Z,15.72
2023-04-21T15:22:36.051Z,15.73
2023-04-21T15:27:27.743Z,15.78
2023-04-21T15:32:19.586Z,15.81
2023-04-21T15:37:11.797Z,15.75
2023-04-21T15:42:04.674Z,15.97
2023-04-21T15:46:56.510Z,15.78
2023-04-21T15:51:48.401Z,15.85
2023-04-21T16:01:46.050Z,15.84
2023-04-21T16:06:45.265Z,16.01
2023-04-21T16:11:37.443Z,15.73
2023-04-21T16:16:29.508Z,15.61
2023-04-21T16:21:21.373Z,15.42
2023-04-21T16:26:13.136Z,15.49
2023-04-21T16:31:08.569Z,15.57
2023-04-21T16:36:00.519Z,15.64
2023-04-21T16:40:52.587Z,15.64
2023-04-21T16:45:44.908Z,15.69
2023-04-21T16:50:42.034Z,15.62
2023-04-21T16:55:38.170Z,15.45
2023-04-21T17:00:30.547Z,15.41
2023-04-21T17:05:25.841Z,15.24
2023-04-21T17:10:18.237Z,15.17
2023-04-21T17:15:11.871Z,15.01
2023-04-21T17:20:03.844Z,14.99
2023-04-21T17:24:57.685Z,14.97
2023-04-21T17:29:49.989Z,14.91
2023-04-21T17:34:42.581Z,14.88
2023-04-21T17:39:36.364Z,14.77
2023-04-21T17:44:28.205Z,14.69
2023-04-21T17:49:19.980Z,14.49
2023-04-21T17:54:12.500Z,14.38
2023-04-21T17:59:04.239Z,14.31
2023-04-21T18:03:59.304Z,14.20
2023-04-21T18:08:52.865Z,14.09
2023-04-21T18:13:45.013Z,14.05
2023-04-21T18:18:36.853Z,14.00
2023-04-21T18:23:29.133Z,13.89
2023-04-21T18:28:20.905Z,13.87
2023-04-21T18:33:12.892Z,13.78
2023-04-21T18:38:08.247Z,13.63
2023-04-21T18:43:00.676Z,13.55
2023-04-21T18:47:52.804Z,13.43
2023-04-21T18:52:45.800Z,13.39
2023-04-21T18:57:37.489Z,13.37
2023-04-21T19:02:29.981Z,13.27
2023-04-21T19:07:22.321Z,13.23
2023-04-21T19:12:14.516Z,13.16
2023-04-21T19:17:07.314Z,13.07
2023-04-21T19:21:59.943Z,13.16
2023-04-21T19:26:51.792Z,13.35
2023-04-21T19:31:43.528Z,13.11
2023-04-21T19:36:35.403Z,13.02
2023-04-21T19:41:27.121Z,13.25
2023-04-21T19:46:18.926Z,13.12
2023-04-21T19:51:10.652Z,13.07
2023-04-21T19:56:02.342Z,12.91
2023-04-21T20:00:54.050Z,12.94
2023-04-21T20:05:45.980Z,12.95
2023-04-21T20:10:43.599Z,12.80
2023-04-21T20:15:35.341Z,12.74
2023-04-21T20:20:30.714Z,12.63
2023-04-21T20:25:22.532Z,12.57
2023-04-21T20:30:14.406Z,12.48
2023-04-21T20:35:08.527Z,12.34
2023-04-21T20:40:01.837Z,12.25
2023-04-21T20:44:53.633Z,12.18
2023-04-21T20:49:47.130Z,12.45
2023-04-21T20:54:38.928Z,12.35
2023-04-21T20:59:31.412Z,12.30
2023-04-21T21:04:23.328Z,12.18
2023-04-21T21:09:16.958Z,12.08
2023-04-21T21:14:08.615Z,12.01
2023-04-21T21:19:00.422Z,11.95
2023-04-21T21:23:52.473Z,11.89
2023-04-21T21:28:44.335Z,11.82
2023-04-21T21:33:36.200Z,11.74
2023-04-21T21:38:28.154Z,11.70
2023-04-21T21:43:19.825Z,11.67
2023-04-21T21:48:11.608Z,11.71
2023-04-21T21:53:03.489Z,11.92
2023-04-21T21:57:55.689Z,11.81
2023-04-21T22:02:47.671Z,11.74
2023-04-21T22:07:47.380Z,11.61
2023-04-21T22:12:39.307Z,11.52
2023-04-21T22:17:31.145Z,11.43
2023-04-21T22:22:23.290Z,11.33
2023-04-21T22:27:16.956Z,11.29
2023-04-21T22:32:10.072Z,11.26
2023-04-21T22:37:02.281Z,11.19
2023-04-21T22:41:54.116Z,11.17
2023-04-21T22:46:46.960Z,11.11
2023-04-21T22:51:38.757Z,11.03
2023-04-21T22:56:31.668Z,11.02
2023-04-21T23:01:23.722Z,10.94
2023-04-21T23:06:15.610Z,10.87
2023-04-21T23:11:07.754Z,10.83
2023-04-21T23:15:59.785Z,10.95
2023-04-21T23:20:52.491Z,10.96
2023-04-21T23:25:44.364Z,10.80
2023-04-21T23:30:36.247Z,10.77
2023-04-21T23:35:28.067Z,10.78
2023-04-21T23:40:21.175Z,10.73
2023-04-21T23:45:13.108Z,10.69
2023-04-21T23:50:05.616Z,10.56
2023-04-21T23:54:57.436Z,10.58
2023-04-21T23:59:49.175Z,10.47
